Time,TemperatureF,DewpointF,PressureIn,WindDirection,WindDirectionDegrees,WindSpeedMPH,WindSpeedGustMPH,Humidity,HourlyPrecipIn,Conditions,Clouds,dailyrainin,SoftwareType,DateUTC
2013-10-10 00:01:00,54.4,51.2,30.17,East,90,1.6,1.8,89,0.02,,,0.00,WUHU216HW,2013-10-10 04:01:00,
2013-10-10 00:02:00,54.4,51.2,30.17,SSW,203,1.1,1.8,89,0.02,,,0.00,WUHU216HW,2013-10-10 04:02:00,
2013-10-10 00:03:00,54.4,51.2,30.17,SSW,203,1.1,1.8,89,0.02,,,0.00,WUHU216HW,2013-10-10 04:03:00,
2013-10-10 00:05:00,54.4,51.2,30.17,South,180,2.0,2.0,89,0.01,,,0.00,WUHU216HW,2013-10-10 04:05:00,
2013-10-10 00:10:00,54.4,51.2,30.17,SSE,158,2.7,2.7,89,0.00,,,0.00,WUHU216HW,2013-10-10 04:10:00,
2013-10-10 00:15:00,54.4,51.2,30.17,SW,225,0.9,2.7,89,0.00,,,0.00,WUHU216HW,2013-10-10 04:15:00,
2013-10-10 00:20:00,54.4,51.2,30.17,WSW,248,2.5,2.7,89,0.00,,,0.00,WUHU216HW,2013-10-10 04:20:00,
2013-10-10 00:26:00,54.5,51.3,30.17,SSW,203,0.0,2.5,89,0.00,,,0.00,WUHU216HW,2013-10-10 04:26:00,
2013-10-10 00:31:00,54.4,51.2,30.17,SSW,203,0.7,1.1,89,0.00,,,0.00,WUHU216HW,2013-10-10 04:31:00,
2013-10-10 00:36:00,54.5,51.3,30.16,SW,225,1.6,1.6,89,0.00,,,0.00,WUHU216HW,2013-10-10 04:36:00,
2013-10-10 00:41:00,54.5,51.3,30.16,South,180,0.4,1.6,89,0.00,,,0.00,WUHU216HW,2013-10-10 04:41:00,
2013-10-10 00:46:00,54.5,51.3,30.16,SSW,203,0.9,1.6,89,0.00,,,0.00,WUHU216HW,2013-10-10 04:46:00,
2013-10-10 00:51:00,54.4,51.2,30.15,South,180,0.9,0.9,89,0.00,,,0.00,WUHU216HW,2013-10-10 04:51:00,
2013-10-10 00:56:00,54.5,51.3,30.15,SSW,203,0.4,1.1,89,0.00,,,0.00,WUHU216HW,2013-10-10 04:56:00,
2013-10-10 01:01:00,54.5,51.3,30.15,SSW,203,0.9,1.1,89,0.00,,,0.00,WUHU216HW,2013-10-10 05:01:00,
2013-10-10 01:06:00,54.5,51.3,30.15,SW,225,1.3,1.3,89,0.00,,,0.00,WUHU216HW,2013-10-10 05:06:00,
2013-10-10 01:11:00,54.5,51.3,30.15,ESE,113,1.8,2.0,89,0.00,,,0.00,WUHU216HW,2013-10-10 05:11:00,
2013-10-10 01:17:00,54.5,51.3,30.15,SE,135,1.3,2.0,89,0.00,,,0.00,WUHU216HW,2013-10-10 05:17:00,
2013-10-10 01:22:00,54.7,51.5,30.15,SE,135,0.7,1.8,89,0.00,,,0.00,WUHU216HW,2013-10-10 05:22:00,
2013-10-10 01:27:00,54.7,51.5,30.15,SSW,203,0.9,0.9,89,0.00,,,0.00,WUHU216HW,2013-10-10 05:27:00,
2013-10-10 01:32:00,54.7,51.2,30.15,South,180,0.4,0.9,88,0.00,,,0.00,WUHU216HW,2013-10-10 05:32:00,
2013-10-10 01:37:00,54.7,51.2,30.15,SW,225,0.9,0.9,88,0.00,,,0.00,WUHU216HW,2013-10-10 05:37:00,
2013-10-10 01:42:00,54.7,51.2,30.14,SSW,203,1.1,1.1,88,0.00,,,0.00,WUHU216HW,2013-10-10 05:42:00,
2013-10-10 01:47:00,54.7,51.2,30.14,SE,135,1.1,1.1,88,0.00,,,0.00,WUHU216HW,2013-10-10 05:47:00,
2013-10-10 01:52:00,54.7,51.2,30.14,SE,135,0.9,2.5,88,0.00,,,0.00,WUHU216HW,2013-10-10 05:52:00,
2013-10-10 01:57:00,54.7,51.2,30.14,South,180,0.0,2.5,88,0.01,,,0.01,WUHU216HW,2013-10-10 05:57:00,
2013-10-10 02:02:00,54.7,51.2,30.14,SSW,203,0.9,0.9,88,0.01,,,0.01,WUHU216HW,2013-10-10 06:02:00,
2013-10-10 02:08:00,54.5,51.0,30.13,SSW,203,0.7,0.9,88,0.01,,,0.01,WUHU216HW,2013-10-10 06:08:00,
2013-10-10 02:13:00,54.5,51.0,30.13,South,180,0.0,0.7,88,0.01,,,0.01,WUHU216HW,2013-10-10 06:13:00,
2013-10-10 02:18:00,54.4,50.9,30.13,South,180,1.1,1.1,88,0.01,,,0.01,WUHU216HW,2013-10-10 06:18:00,
2013-10-10 02:23:00,54.4,51.2,30.13,SSW,203,1.1,1.1,89,0.02,,,0.02,WUHU216HW,2013-10-10 06:23:00,
2013-10-10 02:28:00,54.4,51.2,30.13,ESE,113,0.7,1.1,89,0.02,,,0.02,WUHU216HW,2013-10-10 06:28:00,
2013-10-10 02:33:00,54.4,51.2,30.13,SSW,203,0.4,1.1,89,0.03,,,0.04,WUHU216HW,2013-10-10 06:33:00,
2013-10-10 02:38:00,54.4,51.2,30.12,SSW,203,1.1,1.1,89,0.03,,,0.04,WUHU216HW,2013-10-10 06:38:00,
2013-10-10 02:43:00,54.2,51.0,30.12,SE,135,2.5,2.5,89,0.04,,,0.04,WUHU216HW,2013-10-10 06:43:00,
2013-10-10 02:48:00,54.2,51.0,30.12,SSE,158,0.2,2.5,89,0.05,,,0.06,WUHU216HW,2013-10-10 06:48:00,
2013-10-10 02:53:00,54.0,50.9,30.12,SSW,203,0.4,2.5,89,0.05,,,0.06,WUHU216HW,2013-10-10 06:53:00,
2013-10-10 02:58:00,54.0,50.9,30.12,South,180,0.9,1.1,89,0.07,,,0.09,WUHU216HW,2013-10-10 06:58:00,
2013-10-10 03:04:00,54.0,51.1,30.11,SW,225,1.8,1.8,90,0.07,,,0.09,WUHU216HW,2013-10-10 07:04:00,
2013-10-10 03:09:00,54.0,51.1,30.11,North,0,0.4,1.8,90,0.08,,,0.09,WUHU216HW,2013-10-10 07:09:00,
2013-10-10 03:14:00,53.8,50.9,30.11,SW,225,0.7,1.8,90,0.11,,,0.11,WUHU216HW,2013-10-10 07:14:00,
2013-10-10 03:19:00,53.8,50.9,30.11,South,180,0.4,0.7,90,0.11,,,0.13,WUHU216HW,2013-10-10 07:19:00,
2013-10-10 03:24:00,53.8,50.9,30.12,SSW,203,1.6,1.6,90,0.11,,,0.13,WUHU216HW,2013-10-10 07:24:00,
2013-10-10 03:29:00,53.8,50.9,30.11,South,180,0.4,1.6,90,0.11,,,0.15,WUHU216HW,2013-10-10 07:29:00,
2013-10-10 03:34:00,53.8,50.9,30.11,South,180,0.7,0.7,90,0.12,,,0.16,WUHU216HW,2013-10-10 07:34:00,
2013-10-10 03:39:00,53.6,51.0,30.11,SSW,203,0.4,0.7,91,0.12,,,0.16,WUHU216HW,2013-10-10 07:39:00,
2013-10-10 03:44:00,53.8,51.2,30.11,SSE,158,1.1,1.1,91,0.11,,,0.17,WUHU216HW,2013-10-10 07:44:00,
2013-10-10 03:49:00,53.8,51.2,30.11,SSW,203,0.9,1.1,91,0.10,,,0.17,WUHU216HW,2013-10-10 07:49:00,
2013-10-10 03:54:00,53.6,51.0,30.11,SSW,203,1.1,1.1,91,0.10,,,0.18,WUHU216HW,2013-10-10 07:54:00,
2013-10-10 03:59:00,53.6,51.0,30.11,SSW,203,0.0,1.1,91,0.10,,,0.19,WUHU216HW,2013-10-10 07:59:00,
2013-10-10 04:04:00,53.6,51.0,30.11,SW,225,1.1,1.1,91,0.10,,,0.20,WUHU216HW,2013-10-10 08:04:00,
2013-10-10 04:10:00,53.6,51.0,30.11,WSW,248,1.8,1.8,91,0.10,,,0.20,WUHU216HW,2013-10-10 08:10:00,
2013-10-10 04:15:00,53.6,51.0,30.11,SSW,203,2.0,2.0,91,0.08,,,0.21,WUHU216HW,2013-10-10 08:15:00,
2013-10-10 04:20:00,53.6,51.3,30.10,SSE,158,0.4,2.0,92,0.07,,,0.21,WUHU216HW,2013-10-10 08:20:00,
2013-10-10 04:25:00,53.6,51.3,30.10,SE,135,1.1,2.0,92,0.06,,,0.21,WUHU216HW,2013-10-10 08:25:00,
2013-10-10 04:30:00,53.6,51.3,30.10,SSW,203,0.4,1.1,92,0.06,,,0.21,WUHU216HW,2013-10-10 08:30:00,
2013-10-10 04:35:00,53.6,51.3,30.10,SSW,203,1.3,1.3,92,0.05,,,0.21,WUHU216HW,2013-10-10 08:35:00,
2013-10-10 04:40:00,53.6,51.3,30.10,SSE,158,1.6,1.6,92,0.04,,,0.21,WUHU216HW,2013-10-10 08:40:00,
2013-10-10 04:45:00,53.6,51.3,30.10,SW,225,1.1,1.6,92,0.04,,,0.21,WUHU216HW,2013-10-10 08:45:00,
2013-10-10 04:50:00,53.6,51.3,30.10,SSW,203,4.0,4.0,92,0.03,,,0.21,WUHU216HW,2013-10-10 08:50:00,
2013-10-10 04:55:00,53.6,51.3,30.09,WNW,293,1.3,4.0,92,0.02,,,0.21,WUHU216HW,2013-10-10 08:55:00,
2013-10-10 05:00:00,53.6,51.3,30.10,SE,135,1.3,4.0,92,0.02,,,0.22,WUHU216HW,2013-10-10 09:00:00,
2013-10-10 05:05:00,53.6,51.3,30.10,SSE,158,0.9,1.3,92,0.02,,,0.22,WUHU216HW,2013-10-10 09:05:00,
2013-10-10 05:10:00,53.6,51.3,30.10,WSW,248,0.2,1.3,92,0.01,,,0.22,WUHU216HW,2013-10-10 09:10:00,
2013-10-10 05:16:00,53.6,51.3,30.10,ESE,113,0.2,0.9,92,0.01,,,0.22,WUHU216HW,2013-10-10 09:16:00,
2013-10-10 05:21:00,53.6,51.3,30.10,East,90,0.7,1.1,92,0.01,,,0.22,WUHU216HW,2013-10-10 09:21:00,
2013-10-10 05:26:00,53.6,51.3,30.10,South,180,0.9,1.1,92,0.01,,,0.22,WUHU216HW,2013-10-10 09:26:00,
2013-10-10 05:31:00,53.6,51.3,30.10,SW,225,1.8,1.8,92,0.02,,,0.23,WUHU216HW,2013-10-10 09:31:00,
2013-10-10 05:36:00,53.6,51.3,30.10,SSW,203,0.4,2.0,92,0.02,,,0.23,WUHU216HW,2013-10-10 09:36:00,
2013-10-10 05:41:00,53.5,51.1,30.10,NNW,338,0.4,2.0,92,0.03,,,0.24,WUHU216HW,2013-10-10 09:41:00,
2013-10-10 05:46:00,53.5,51.1,30.10,SE,135,1.8,1.8,92,0.03,,,0.24,WUHU216HW,2013-10-10 09:46:00,
2013-10-10 05:51:00,53.5,51.1,30.10,SSW,203,0.9,1.8,92,0.03,,,0.24,WUHU216HW,2013-10-10 09:51:00,
2013-10-10 05:56:00,53.5,51.1,30.10,SSE,158,0.4,1.8,92,0.02,,,0.24,WUHU216HW,2013-10-10 09:56:00,
2013-10-10 06:01:00,53.5,51.1,30.10,SSW,203,0.7,1.1,92,0.02,,,0.24,WUHU216HW,2013-10-10 10:01:00,
2013-10-10 06:06:00,53.5,51.1,30.10,SSW,203,0.7,0.7,92,0.02,,,0.24,WUHU216HW,2013-10-10 10:06:00,
2013-10-10 06:11:00,53.5,51.1,30.10,South,180,0.7,0.7,92,0.02,,,0.24,WUHU216HW,2013-10-10 10:11:00,
2013-10-10 06:16:00,53.5,51.1,30.10,South,180,1.3,1.3,92,0.02,,,0.24,WUHU216HW,2013-10-10 10:16:00,
2013-10-10 06:21:00,53.5,51.1,30.10,South,180,0.4,1.3,92,0.03,,,0.25,WUHU216HW,2013-10-10 10:21:00,
2013-10-10 06:27:00,53.5,51.1,30.10,South,180,1.8,1.8,92,0.02,,,0.25,WUHU216HW,2013-10-10 10:27:00,
2013-10-10 06:32:00,53.5,51.1,30.10,South,180,2.2,2.2,92,0.02,,,0.25,WUHU216HW,2013-10-10 10:32:00,
2013-10-10 06:37:00,53.5,51.1,30.10,SE,135,1.1,2.2,92,0.01,,,0.25,WUHU216HW,2013-10-10 10:37:00,
2013-10-10 06:42:00,53.6,51.3,30.09,SSE,158,1.8,2.2,92,0.01,,,0.25,WUHU216HW,2013-10-10 10:42:00,
2013-10-10 06:47:00,53.6,51.3,30.09,SSW,203,0.7,1.8,92,0.01,,,0.25,WUHU216HW,2013-10-10 10:47:00,
2013-10-10 06:52:00,53.6,51.3,30.09,SSW,203,0.9,1.8,92,0.01,,,0.25,WUHU216HW,2013-10-10 10:52:00,
2013-10-10 06:57:00,53.6,51.3,30.10,SSW,203,0.9,0.9,92,0.02,,,0.26,WUHU216HW,2013-10-10 10:57:00,
2013-10-10 07:02:00,53.6,51.3,30.10,South,180,0.7,0.9,92,0.02,,,0.26,WUHU216HW,2013-10-10 11:02:00,
2013-10-10 07:07:00,53.6,51.3,30.09,South,180,0.4,1.3,92,0.04,,,0.28,WUHU216HW,2013-10-10 11:07:00,
2013-10-10 07:12:00,53.6,51.7,30.10,SSE,158,0.9,1.3,93,0.05,,,0.29,WUHU216HW,2013-10-10 11:12:00,
2013-10-10 07:17:00,53.6,51.7,30.09,SSW,203,0.4,0.9,93,0.06,,,0.31,WUHU216HW,2013-10-10 11:17:00,
2013-10-10 07:22:00,53.5,51.5,30.09,ENE,68,1.3,1.3,93,0.11,,,0.34,WUHU216HW,2013-10-10 11:22:00,
2013-10-10 07:27:00,53.5,51.5,30.09,South,180,0.0,1.6,93,0.14,,,0.39,WUHU216HW,2013-10-10 11:27:00,
2013-10-10 07:32:00,53.5,51.5,30.09,South,180,0.7,1.6,93,0.14,,,0.39,WUHU216HW,2013-10-10 11:32:00,
2013-10-10 07:38:00,53.5,51.5,30.10,South,180,1.8,1.8,93,0.16,,,0.41,WUHU216HW,2013-10-10 11:38:00,
2013-10-10 07:43:00,53.5,51.5,30.09,SW,225,0.9,1.8,93,0.22,,,0.44,WUHU216HW,2013-10-10 11:43:00,
2013-10-10 07:48:00,53.5,51.5,30.09,South,180,0.7,1.1,93,0.30,,,0.54,WUHU216HW,2013-10-10 11:48:00,
2013-10-10 07:53:00,53.5,51.5,30.09,SE,135,0.7,1.8,93,0.33,,,0.58,WUHU216HW,2013-10-10 11:53:00,
2013-10-10 07:58:00,53.5,51.5,30.10,SSW,203,0.9,1.8,93,0.33,,,0.59,WUHU216HW,2013-10-10 11:58:00,
2013-10-10 08:03:00,53.5,51.5,30.10,SW,225,1.8,1.8,93,0.39,,,0.65,WUHU216HW,2013-10-10 12:03:00,
2013-10-10 08:08:00,53.5,51.5,30.10,South,180,1.1,1.8,93,0.40,,,0.69,WUHU216HW,2013-10-10 12:08:00,
2013-10-10 08:13:00,53.6,51.7,30.09,South,180,0.4,1.8,93,0.43,,,0.74,WUHU216HW,2013-10-10 12:13:00,
2013-10-10 08:18:00,53.6,51.7,30.09,SW,225,1.1,1.1,93,0.42,,,0.76,WUHU216HW,2013-10-10 12:18:00,
2013-10-10 08:23:00,53.6,51.7,30.09,SW,225,1.6,1.6,93,0.42,,,0.78,WUHU216HW,2013-10-10 12:23:00,
2013-10-10 08:28:00,53.6,51.7,30.09,SSW,203,0.4,1.6,93,0.42,,,0.80,WUHU216HW,2013-10-10 12:28:00,
2013-10-10 08:33:00,53.8,51.9,30.09,South,180,1.1,1.1,93,0.41,,,0.82,WUHU216HW,2013-10-10 12:33:00,
2013-10-10 08:39:00,53.8,51.9,30.09,SSW,203,1.6,1.6,93,0.39,,,0.83,WUHU216HW,2013-10-10 12:39:00,
2013-10-10 08:44:00,53.8,51.9,30.09,SSW,203,0.4,1.6,93,0.39,,,0.85,WUHU216HW,2013-10-10 12:44:00,
2013-10-10 08:49:00,54.0,52.0,30.08,SE,135,1.1,1.3,93,0.31,,,0.90,WUHU216HW,2013-10-10 12:49:00,
2013-10-10 08:54:00,54.0,52.3,30.08,SSW,203,1.1,1.1,94,0.30,,,0.90,WUHU216HW,2013-10-10 12:54:00,
2013-10-10 08:59:00,54.2,52.5,30.08,SSE,158,1.1,1.8,94,0.30,,,0.91,WUHU216HW,2013-10-10 12:59:00,
2013-10-10 09:04:00,54.2,52.5,30.08,South,180,1.3,1.8,94,0.28,,,0.96,WUHU216HW,2013-10-10 13:04:00,
2013-10-10 09:09:00,54.2,52.5,30.08,SE,135,0.2,1.3,94,0.28,,,1.02,WUHU216HW,2013-10-10 13:09:00,
2013-10-10 09:14:00,54.2,52.5,30.08,SSW,203,0.7,1.3,94,0.30,,,1.03,WUHU216HW,2013-10-10 13:14:00,
2013-10-10 09:19:00,54.2,52.5,30.08,NW,315,0.0,0.7,94,0.28,,,1.03,WUHU216HW,2013-10-10 13:19:00,
2013-10-10 09:24:00,54.4,52.7,30.08,SSW,203,1.1,1.1,94,0.23,,,1.03,WUHU216HW,2013-10-10 13:24:00,
2013-10-10 09:29:00,54.4,52.7,30.08,SE,135,0.7,1.1,94,0.22,,,1.04,WUHU216HW,2013-10-10 13:29:00,
2013-10-10 09:34:00,54.4,52.7,30.08,SE,135,0.4,2.0,94,0.22,,,1.05,WUHU216HW,2013-10-10 13:34:00,
2013-10-10 09:39:00,54.5,52.8,30.09,WSW,248,1.3,2.0,94,0.20,,,1.05,WUHU216HW,2013-10-10 13:39:00,
2013-10-10 09:45:00,54.5,52.8,30.09,South,180,0.0,1.3,94,0.16,,,1.06,WUHU216HW,2013-10-10 13:45:00,
2013-10-10 09:50:00,54.5,52.8,30.08,SSW,203,0.2,1.3,94,0.16,,,1.06,WUHU216HW,2013-10-10 13:50:00,
2013-10-10 09:55:00,54.5,52.8,30.08,South,180,0.4,0.4,94,0.15,,,1.06,WUHU216HW,2013-10-10 13:55:00,
2013-10-10 10:00:00,54.7,53.0,30.08,WSW,248,0.4,0.4,94,0.10,,,1.06,WUHU216HW,2013-10-10 14:00:00,
2013-10-10 10:05:00,54.7,53.0,30.08,South,180,0.4,0.9,94,0.04,,,1.06,WUHU216HW,2013-10-10 14:05:00,
2013-10-10 10:10:00,54.7,53.0,30.08,SSE,158,0.7,0.9,94,0.03,,,1.06,WUHU216HW,2013-10-10 14:10:00,
2013-10-10 10:15:00,54.9,53.2,30.08,SE,135,0.4,0.7,94,0.03,,,1.06,WUHU216HW,2013-10-10 14:15:00,
2013-10-10 10:20:00,54.9,53.2,30.08,SSW,203,0.4,0.7,94,0.04,,,1.07,WUHU216HW,2013-10-10 14:20:00,
2013-10-10 10:25:00,55.1,53.4,30.08,SE,135,0.7,1.6,94,0.03,,,1.07,WUHU216HW,2013-10-10 14:25:00,
2013-10-10 10:30:00,55.1,53.4,30.07,South,180,0.4,1.6,94,0.02,,,1.07,WUHU216HW,2013-10-10 14:30:00,
2013-10-10 10:35:00,55.1,53.4,30.07,South,180,1.3,1.3,94,0.02,,,1.07,WUHU216HW,2013-10-10 14:35:00,
2013-10-10 10:40:00,55.3,53.6,30.07,South,180,0.0,1.3,94,0.02,,,1.07,WUHU216HW,2013-10-10 14:40:00,
2013-10-10 10:45:00,55.3,53.6,30.08,South,180,0.0,0.7,94,0.02,,,1.08,WUHU216HW,2013-10-10 14:45:00,
2013-10-10 10:51:00,55.3,53.6,30.07,SW,225,1.3,1.3,94,0.02,,,1.08,WUHU216HW,2013-10-10 14:51:00,
2013-10-10 10:56:00,55.3,53.6,30.07,South,180,0.7,1.3,94,0.02,,,1.08,WUHU216HW,2013-10-10 14:56:00,
2013-10-10 11:01:00,55.3,53.6,30.07,SSW,203,0.4,0.7,94,0.02,,,1.08,WUHU216HW,2013-10-10 15:01:00,
2013-10-10 11:06:00,55.3,53.6,30.07,WSW,248,1.1,1.1,94,0.02,,,1.08,WUHU216HW,2013-10-10 15:06:00,
2013-10-10 11:11:00,55.4,53.7,30.07,SSE,158,0.4,1.1,94,0.02,,,1.08,WUHU216HW,2013-10-10 15:11:00,
2013-10-10 11:16:00,55.4,53.7,30.07,SSE,158,0.7,1.1,94,0.01,,,1.08,WUHU216HW,2013-10-10 15:16:00,
2013-10-10 11:21:00,55.4,53.7,30.08,South,180,0.4,0.7,94,0.01,,,1.08,WUHU216HW,2013-10-10 15:21:00,
2013-10-10 11:26:00,55.4,53.7,30.08,South,180,0.4,0.7,94,0.01,,,1.08,WUHU216HW,2013-10-10 15:26:00,
2013-10-10 11:48:00,55.8,54.1,30.07,SSE,158,0.2,0.2,94,0.01,,,1.08,WUHU216HW,2013-10-10 15:48:00,
2013-10-10 11:53:00,55.8,54.1,30.07,SSE,158,0.2,0.2,94,0.01,,,1.08,WUHU216HW,2013-10-10 15:53:00,
2013-10-10 12:00:00,56.0,54.3,30.07,SSW,203,1.3,1.3,94,0.01,,,1.09,WUHU216HW,2013-10-10 16:00:00,
2013-10-10 12:05:00,56.0,54.3,30.07,SSW,203,1.1,1.3,94,0.01,,,1.09,WUHU216HW,2013-10-10 16:05:00,
2013-10-10 12:10:00,56.2,54.5,30.06,SW,225,0.7,1.3,94,0.01,,,1.09,WUHU216HW,2013-10-10 16:10:00,
2013-10-10 12:15:00,56.0,54.3,30.06,SSE,158,1.8,1.8,94,0.02,,,1.10,WUHU216HW,2013-10-10 16:15:00,
2013-10-10 12:20:00,56.3,54.6,30.06,SE,135,1.6,1.8,94,0.02,,,1.10,WUHU216HW,2013-10-10 16:20:00,
2013-10-10 12:25:00,56.3,54.6,30.05,SE,135,1.1,1.6,94,0.01,,,1.10,WUHU216HW,2013-10-10 16:25:00,
2013-10-10 12:30:00,56.5,54.8,30.05,SSW,203,1.1,1.6,94,0.01,,,1.10,WUHU216HW,2013-10-10 16:30:00,
2013-10-10 12:35:00,56.5,54.8,30.05,South,180,1.3,1.3,94,0.01,,,1.10,WUHU216HW,2013-10-10 16:35:00,
2013-10-10 12:40:00,56.7,55.0,30.05,SSW,203,1.1,1.3,94,0.01,,,1.10,WUHU216HW,2013-10-10 16:40:00,
2013-10-10 12:45:00,56.9,55.2,30.05,South,180,1.8,1.8,94,0.01,,,1.10,WUHU216HW,2013-10-10 16:45:00,
2013-10-10 12:51:00,56.9,55.2,30.05,South,180,1.8,1.8,94,0.01,,,1.10,WUHU216HW,2013-10-10 16:51:00,
2013-10-10 13:00:00,57.1,55.4,30.04,SSW,203,0.4,0.4,94,0.01,,,1.10,WUHU216HW,2013-10-10 17:00:00,
2013-10-10 13:05:00,57.1,55.4,30.04,SSE,158,2.7,2.7,94,0.01,,,1.10,WUHU216HW,2013-10-10 17:05:00,
2013-10-10 13:10:00,57.2,55.5,30.03,South,180,1.6,2.7,94,0.00,,,1.10,WUHU216HW,2013-10-10 17:10:00,
2013-10-10 13:15:00,57.2,55.5,30.04,SSE,158,1.3,1.6,94,0.00,,,1.10,WUHU216HW,2013-10-10 17:15:00,
2013-10-10 13:20:00,57.4,55.7,30.04,South,180,0.7,1.6,94,0.00,,,1.10,WUHU216HW,2013-10-10 17:20:00,
2013-10-10 13:25:00,57.6,55.9,30.04,South,180,0.0,1.3,94,0.00,,,1.10,WUHU216HW,2013-10-10 17:25:00,
2013-10-10 13:30:00,57.6,55.9,30.03,SSW,203,0.4,0.4,94,0.00,,,1.10,WUHU216HW,2013-10-10 17:30:00,
2013-10-10 13:35:00,57.6,55.9,30.03,SE,135,0.9,0.9,94,0.00,,,1.10,WUHU216HW,2013-10-10 17:35:00,
2013-10-10 13:40:00,58.0,56.3,30.03,SSW,203,2.0,2.0,94,0.00,,,1.10,WUHU216HW,2013-10-10 17:40:00,
2013-10-10 13:45:00,58.0,56.3,30.03,South,180,0.0,2.0,94,0.00,,,1.10,WUHU216HW,2013-10-10 17:45:00,
2013-10-10 13:51:00,58.0,56.3,30.03,SSE,158,1.1,1.1,94,0.00,,,1.10,WUHU216HW,2013-10-10 17:51:00,
2013-10-10 13:56:00,58.0,56.3,30.03,SSE,158,1.1,1.1,94,0.00,,,1.10,WUHU216HW,2013-10-10 17:56:00,
2013-10-10 14:01:00,58.0,56.3,30.02,SSE,158,0.9,1.1,94,0.00,,,1.10,WUHU216HW,2013-10-10 18:01:00,
2013-10-10 14:06:00,58.1,56.4,30.02,SSW,203,0.4,0.9,94,0.00,,,1.10,WUHU216HW,2013-10-10 18:06:00,
2013-10-10 14:11:00,58.1,56.4,30.02,South,180,1.6,1.6,94,0.00,,,1.10,WUHU216HW,2013-10-10 18:11:00,
2013-10-10 14:16:00,58.0,56.3,30.02,SSW,203,1.3,1.6,94,0.00,,,1.10,WUHU216HW,2013-10-10 18:16:00,
2013-10-10 14:21:00,58.0,56.3,30.02,SSW,203,0.2,1.3,94,0.00,,,1.10,WUHU216HW,2013-10-10 18:21:00,
2013-10-10 14:26:00,58.0,56.3,30.01,SSW,203,1.3,1.3,94,0.00,,,1.10,WUHU216HW,2013-10-10 18:26:00,
2013-10-10 14:31:00,58.0,56.3,30.01,SSE,158,0.9,1.3,94,0.00,,,1.10,WUHU216HW,2013-10-10 18:31:00,
2013-10-10 14:36:00,58.1,56.4,30.01,SSE,158,0.7,1.3,94,0.00,,,1.10,WUHU216HW,2013-10-10 18:36:00,
2013-10-10 14:41:00,58.1,56.4,30.01,SSW,203,0.7,1.3,94,0.00,,,1.10,WUHU216HW,2013-10-10 18:41:00,
2013-10-10 14:46:00,58.1,56.4,30.01,SW,225,1.3,1.3,94,0.00,,,1.10,WUHU216HW,2013-10-10 18:46:00,
2013-10-10 14:51:00,58.1,56.4,30.01,NNW,338,0.2,1.3,94,0.00,,,1.10,WUHU216HW,2013-10-10 18:51:00,
2013-10-10 14:57:00,58.1,56.4,30.01,SSW,203,1.6,1.6,94,0.00,,,1.10,WUHU216HW,2013-10-10 18:57:00,
2013-10-10 15:02:00,58.1,56.4,30.01,SSW,203,3.1,3.1,94,0.00,,,1.10,WUHU216HW,2013-10-10 19:02:00,
2013-10-10 15:07:00,58.1,56.4,30.00,SW,225,0.2,3.1,94,0.00,,,1.10,WUHU216HW,2013-10-10 19:07:00,
2013-10-10 15:12:00,58.1,56.4,30.00,SSW,203,0.7,3.1,94,0.00,,,1.10,WUHU216HW,2013-10-10 19:12:00,
2013-10-10 15:17:00,58.1,56.4,30.00,SSW,203,1.1,1.1,94,0.00,,,1.10,WUHU216HW,2013-10-10 19:17:00,
2013-10-10 15:22:00,58.1,56.2,30.00,ESE,113,1.8,1.8,93,0.00,,,1.10,WUHU216HW,2013-10-10 19:22:00,
2013-10-10 15:27:00,58.1,56.4,30.00,ESE,113,1.8,1.8,94,0.00,,,1.10,WUHU216HW,2013-10-10 19:27:00,
2013-10-10 15:32:00,58.0,56.3,30.00,North,0,0.0,1.8,94,0.00,,,1.10,WUHU216HW,2013-10-10 19:32:00,
2013-10-10 15:37:00,58.1,56.4,29.99,North,0,0.0,0.7,94,0.00,,,1.10,WUHU216HW,2013-10-10 19:37:00,
2013-10-10 15:42:00,58.3,56.6,30.00,North,0,0.0,0.0,94,0.00,,,1.10,WUHU216HW,2013-10-10 19:42:00,
2013-10-10 15:47:00,58.3,56.6,29.99,North,0,0.0,0.0,94,0.00,,,1.10,WUHU216HW,2013-10-10 19:47:00,
2013-10-10 15:52:00,58.1,56.2,30.00,North,0,0.0,0.0,93,0.00,,,1.10,WUHU216HW,2013-10-10 19:52:00,
2013-10-10 15:57:00,58.1,56.2,30.00,North,0,0.0,0.0,93,0.00,,,1.10,WUHU216HW,2013-10-10 19:57:00,
2013-10-10 16:02:00,58.0,56.0,30.00,North,0,0.0,0.0,93,0.00,,,1.10,WUHU216HW,2013-10-10 20:02:00,
2013-10-10 16:07:00,58.0,56.0,29.99,North,0,0.0,0.0,93,0.00,,,1.10,WUHU216HW,2013-10-10 20:07:00,
2013-10-10 16:13:00,58.0,56.0,30.00,North,0,0.0,0.0,93,0.00,,,1.10,WUHU216HW,2013-10-10 20:13:00,
2013-10-10 16:18:00,58.1,56.2,30.00,North,0,0.0,0.0,93,0.00,,,1.10,WUHU216HW,2013-10-10 20:18:00,
2013-10-10 16:23:00,58.0,56.0,30.00,North,0,0.0,0.0,93,0.00,,,1.10,WUHU216HW,2013-10-10 20:23:00,
2013-10-10 16:28:00,58.1,56.2,30.00,North,0,0.0,0.0,93,0.00,,,1.10,WUHU216HW,2013-10-10 20:28:00,
2013-10-10 16:32:00,58.0,56.0,30.00,North,0,0.0,0.0,93,0.00,,,1.10,WUHU216HW,2013-10-10 20:32:00,
2013-10-10 16:37:00,58.1,56.2,30.00,North,0,0.0,0.0,93,0.00,,,1.10,WUHU216HW,2013-10-10 20:37:00,
2013-10-10 16:42:00,58.0,56.0,30.00,North,0,0.0,0.0,93,0.01,,,1.10,WUHU216HW,2013-10-10 20:42:00,
2013-10-10 16:47:00,58.0,56.0,30.00,North,0,0.0,0.0,93,0.01,,,1.11,WUHU216HW,2013-10-10 20:47:00,
2013-10-10 16:52:00,58.0,56.0,30.00,North,0,0.0,0.0,93,0.01,,,1.11,WUHU216HW,2013-10-10 20:52:00,
2013-10-10 16:57:00,58.1,56.2,29.99,SW,225,1.1,1.1,93,0.02,,,1.11,WUHU216HW,2013-10-10 20:57:00,
2013-10-10 17:02:00,58.1,56.2,29.99,SE,135,0.0,1.1,93,0.02,,,1.12,WUHU216HW,2013-10-10 21:02:00,
2013-10-10 17:07:00,58.0,56.0,29.99,SSE,158,0.0,1.1,93,0.02,,,1.12,WUHU216HW,2013-10-10 21:07:00,
2013-10-10 17:12:00,58.0,56.0,29.99,SSE,158,0.0,1.1,93,0.02,,,1.12,WUHU216HW,2013-10-10 21:12:00,
2013-10-10 17:17:00,58.0,56.0,29.99,SW,225,0.2,1.1,93,0.02,,,1.12,WUHU216HW,2013-10-10 21:17:00,
2013-10-10 17:23:00,58.0,56.0,29.99,SSW,203,0.7,0.7,93,0.02,,,1.12,WUHU216HW,2013-10-10 21:23:00,
2013-10-10 17:28:00,58.0,56.0,29.99,SW,225,1.6,1.6,93,0.02,,,1.12,WUHU216HW,2013-10-10 21:28:00,
2013-10-10 17:33:00,58.0,56.0,29.99,SSE,158,0.0,1.6,93,0.03,,,1.13,WUHU216HW,2013-10-10 21:33:00,
2013-10-10 17:38:00,58.0,56.0,29.99,SSE,158,0.0,1.6,93,0.03,,,1.13,WUHU216HW,2013-10-10 21:38:00,
2013-10-10 17:43:00,58.0,56.0,29.99,SSE,158,1.3,1.3,93,0.02,,,1.13,WUHU216HW,2013-10-10 21:43:00,
2013-10-10 17:48:00,58.0,56.0,29.99,SE,135,0.4,1.3,93,0.02,,,1.13,WUHU216HW,2013-10-10 21:48:00,
2013-10-10 17:53:00,58.0,56.0,29.99,SE,135,0.4,1.1,93,0.02,,,1.13,WUHU216HW,2013-10-10 21:53:00,
2013-10-10 17:58:00,58.0,56.0,29.99,SE,135,0.4,0.4,93,0.02,,,1.13,WUHU216HW,2013-10-10 21:58:00,
2013-10-10 18:03:00,58.0,56.3,29.99,ESE,113,1.1,1.1,94,0.01,,,1.13,WUHU216HW,2013-10-10 22:03:00,
2013-10-10 18:08:00,57.8,56.1,29.99,SSW,203,1.1,1.1,94,0.01,,,1.13,WUHU216HW,2013-10-10 22:08:00,
2013-10-10 18:13:00,57.8,56.1,29.99,SE,135,1.1,1.1,94,0.01,,,1.13,WUHU216HW,2013-10-10 22:13:00,
2013-10-10 18:18:00,57.8,56.1,29.99,SSE,158,0.0,1.1,94,0.01,,,1.13,WUHU216HW,2013-10-10 22:18:00,
2013-10-10 18:24:00,57.8,56.1,29.99,SE,135,0.0,0.2,94,0.02,,,1.14,WUHU216HW,2013-10-10 22:24:00,
2013-10-10 18:29:00,57.8,56.1,29.99,SE,135,0.9,0.9,94,0.01,,,1.14,WUHU216HW,2013-10-10 22:29:00,
2013-10-10 18:34:00,57.8,56.1,29.99,NNE,23,0.7,0.9,94,0.01,,,1.14,WUHU216HW,2013-10-10 22:34:00,
2013-10-10 18:39:00,57.8,56.1,29.99,SSW,203,0.2,1.1,94,0.01,,,1.14,WUHU216HW,2013-10-10 22:39:00,
2013-10-10 18:44:00,57.8,56.1,29.99,South,180,0.0,1.1,94,0.01,,,1.14,WUHU216HW,2013-10-10 22:44:00,
2013-10-10 18:49:00,57.8,56.1,29.99,ENE,68,0.0,0.2,94,0.01,,,1.14,WUHU216HW,2013-10-10 22:49:00,
2013-10-10 18:54:00,57.8,56.1,29.99,SSE,158,0.2,0.4,94,0.01,,,1.14,WUHU216HW,2013-10-10 22:54:00,
2013-10-10 18:59:00,58.0,56.3,29.99,SSE,158,0.0,0.4,94,0.01,,,1.14,WUHU216HW,2013-10-10 22:59:00,
2013-10-10 19:04:00,58.0,56.3,29.99,South,180,0.4,0.4,94,0.01,,,1.14,WUHU216HW,2013-10-10 23:04:00,
2013-10-10 19:09:00,58.0,56.3,29.99,SSE,158,0.9,1.3,94,0.01,,,1.14,WUHU216HW,2013-10-10 23:09:00,
2013-10-10 19:15:00,58.0,56.3,29.99,SE,135,0.9,1.3,94,0.01,,,1.14,WUHU216HW,2013-10-10 23:15:00,
2013-10-10 19:20:00,58.0,56.3,29.99,South,180,0.9,0.9,94,0.01,,,1.14,WUHU216HW,2013-10-10 23:20:00,
2013-10-10 19:25:00,58.0,56.3,29.99,SSW,203,0.4,0.9,94,0.00,,,1.14,WUHU216HW,2013-10-10 23:25:00,
2013-10-10 19:30:00,58.0,56.3,29.99,SW,225,1.1,1.1,94,0.00,,,1.14,WUHU216HW,2013-10-10 23:30:00,
2013-10-10 19:35:00,58.0,56.3,29.99,SSW,203,0.7,1.1,94,0.00,,,1.14,WUHU216HW,2013-10-10 23:35:00,
2013-10-10 19:40:00,58.0,56.3,29.99,SSW,203,1.3,1.3,94,0.00,,,1.14,WUHU216HW,2013-10-10 23:40:00,
2013-10-10 19:45:00,58.0,56.3,29.99,SSE,158,1.1,1.3,94,0.00,,,1.14,WUHU216HW,2013-10-10 23:45:00,
2013-10-10 19:50:00,58.0,56.3,29.99,SSW,203,1.1,1.3,94,0.00,,,1.14,WUHU216HW,2013-10-10 23:50:00,
2013-10-10 19:55:00,58.0,56.3,29.98,SSE,158,1.3,1.3,94,0.00,,,1.14,WUHU216HW,2013-10-10 23:55:00,
2013-10-10 20:00:00,58.0,56.3,29.98,SSW,203,0.4,1.3,94,0.00,,,1.14,WUHU216HW,2013-10-11 00:00:00,
2013-10-10 20:05:00,58.0,56.3,29.98,SSW,203,0.4,0.4,94,0.00,,,1.14,WUHU216HW,2013-10-11 00:05:00,
2013-10-10 20:30:00,58.0,56.3,29.98,SSW,203,1.1,1.1,94,0.00,,,1.14,WUHU216HW,2013-10-11 00:30:00,
2013-10-10 20:35:00,58.0,56.3,29.98,SSW,203,0.4,1.1,94,0.00,,,1.14,WUHU216HW,2013-10-11 00:35:00,
2013-10-10 20:40:00,58.0,56.3,29.98,SSW,203,0.4,1.8,94,0.00,,,1.14,WUHU216HW,2013-10-11 00:40:00,
2013-10-10 20:45:00,58.0,56.3,29.98,SW,225,0.7,1.8,94,0.00,,,1.14,WUHU216HW,2013-10-11 00:45:00,
2013-10-10 20:50:00,58.0,56.3,29.98,SSW,203,0.4,0.7,94,0.01,,,1.15,WUHU216HW,2013-10-11 00:50:00,
2013-10-10 20:55:00,58.0,56.3,29.97,SSW,203,0.9,0.9,94,0.01,,,1.15,WUHU216HW,2013-10-11 00:55:00,
2013-10-10 21:00:00,58.0,56.3,29.97,SSE,158,0.0,0.9,94,0.01,,,1.15,WUHU216HW,2013-10-11 01:00:00,
2013-10-10 21:06:00,58.0,56.3,29.97,SSW,203,1.1,1.1,94,0.01,,,1.15,WUHU216HW,2013-10-11 01:06:00,
2013-10-10 21:11:00,58.0,56.3,29.97,ESE,113,0.9,1.1,94,0.01,,,1.15,WUHU216HW,2013-10-11 01:11:00,
2013-10-10 21:16:00,57.8,56.3,29.97,SW,225,1.6,2.2,95,0.01,,,1.15,WUHU216HW,2013-10-11 01:16:00,
2013-10-10 21:21:00,57.8,56.1,29.97,East,90,1.1,2.2,94,0.01,,,1.15,WUHU216HW,2013-10-11 01:21:00,
2013-10-10 21:26:00,57.8,56.1,29.97,ESE,113,0.9,1.6,94,0.01,,,1.15,WUHU216HW,2013-10-11 01:26:00,
2013-10-10 21:31:00,57.8,56.3,29.97,SW,225,1.1,1.1,95,0.01,,,1.15,WUHU216HW,2013-10-11 01:31:00,
2013-10-10 21:36:00,57.8,56.3,29.97,SW,225,1.1,1.1,95,0.01,,,1.15,WUHU216HW,2013-10-11 01:36:00,
2013-10-10 22:00:00,57.6,56.2,29.98,SE,135,0.7,0.7,95,0.00,,,1.15,WUHU216HW,2013-10-11 02:00:00,
2013-10-10 22:05:00,57.6,56.2,29.98,SSE,158,1.3,1.3,95,0.00,,,1.15,WUHU216HW,2013-10-11 02:05:00,
2013-10-10 22:10:00,57.4,56.0,29.97,SSW,203,0.7,1.3,95,0.01,,,1.16,WUHU216HW,2013-10-11 02:10:00,
2013-10-10 22:15:00,57.2,55.8,29.97,SSW,203,1.1,1.1,95,0.01,,,1.16,WUHU216HW,2013-10-11 02:15:00,
2013-10-10 22:20:00,57.2,55.8,29.97,South,180,0.9,1.1,95,0.01,,,1.16,WUHU216HW,2013-10-11 02:20:00,
2013-10-10 22:25:00,57.1,55.6,29.97,SSE,158,0.4,1.1,95,0.01,,,1.16,WUHU216HW,2013-10-11 02:25:00,
2013-10-10 22:30:00,57.1,55.6,29.97,SSW,203,0.9,0.9,95,0.01,,,1.16,WUHU216HW,2013-10-11 02:30:00,
2013-10-10 22:36:00,56.9,55.4,29.97,SSE,158,0.0,0.9,95,0.01,,,1.16,WUHU216HW,2013-10-11 02:36:00,
2013-10-10 22:41:00,56.9,55.4,29.97,SSE,158,0.2,0.9,95,0.01,,,1.16,WUHU216HW,2013-10-11 02:41:00,
2013-10-10 22:46:00,56.9,55.4,29.97,SSE,158,0.9,1.1,95,0.01,,,1.16,WUHU216HW,2013-10-11 02:46:00,
2013-10-10 22:51:00,56.9,55.4,29.97,SSE,158,0.9,1.1,95,0.01,,,1.16,WUHU216HW,2013-10-11 02:51:00,
2013-10-10 23:00:00,56.7,55.3,29.96,South,180,1.8,1.8,95,0.01,,,1.16,WUHU216HW,2013-10-11 03:00:00,
2013-10-10 23:05:00,56.7,55.3,29.96,WSW,248,0.0,1.8,95,0.00,,,1.16,WUHU216HW,2013-10-11 03:05:00,
2013-10-10 23:10:00,56.5,55.1,29.96,SSW,203,0.2,1.3,95,0.00,,,1.16,WUHU216HW,2013-10-11 03:10:00,
2013-10-10 23:15:00,56.5,55.1,29.96,SE,135,0.4,0.4,95,0.00,,,1.16,WUHU216HW,2013-10-11 03:15:00,
2013-10-10 23:20:00,56.5,55.1,29.96,NNE,23,0.2,2.2,95,0.00,,,1.16,WUHU216HW,2013-10-11 03:20:00,
2013-10-10 23:25:00,56.5,55.1,29.96,ESE,113,0.4,2.2,95,0.00,,,1.16,WUHU216HW,2013-10-11 03:25:00,
2013-10-10 23:30:00,56.5,55.1,29.96,ENE,68,0.0,0.4,95,0.00,,,1.16,WUHU216HW,2013-10-11 03:30:00,
2013-10-10 23:36:00,56.5,55.1,29.96,SE,135,0.0,0.7,95,0.00,,,1.16,WUHU216HW,2013-10-11 03:36:00,
2013-10-10 23:41:00,56.5,55.1,29.95,South,180,1.1,1.1,95,0.00,,,1.16,WUHU216HW,2013-10-11 03:41:00,
2013-10-10 23:46:00,56.5,55.1,29.95,SSE,158,0.7,1.1,95,0.00,,,1.16,WUHU216HW,2013-10-11 03:46:00,
2013-10-10 23:51:00,56.5,55.1,29.95,SSW,203,0.4,1.1,95,0.00,,,1.16,WUHU216HW,2013-10-11 03:51:00,
2013-10-10 23:56:00,56.5,55.1,29.95,NE,45,1.6,1.8,95,0.01,,,1.17,WUHU216HW,2013-10-11 03:56:00,